createdAt,value
2018-07-21T00:02:09.235Z,74.10
2018-07-21T00:04:43.797Z,75.15
2018-07-21T00:07:18.399Z,76.24
2018-07-21T00:09:52.907Z,76.05
2018-07-21T00:12:27.712Z,76.84
2018-07-21T00:15:02.173Z,77.14
2018-07-21T00:17:36.813Z,78.16
2018-07-21T00:20:11.381Z,78.46
2018-07-21T00:22:45.889Z,80.21
2018-07-21T00:25:20.369Z,80.20
2018-07-21T00:27:54.982Z,78.30
2018-07-21T00:30:29.457Z,78.85
2018-07-21T00:33:03.996Z,77.01
2018-07-21T00:35:38.457Z,77.72
2018-07-21T00:38:13.644Z,78.17
2018-07-21T00:40:48.236Z,77.49
2018-07-21T00:43:22.594Z,78.00
2018-07-21T00:45:57.222Z,78.95
2018-07-21T00:48:31.950Z,79.65
2018-07-21T00:51:06.481Z,78.65
2018-07-21T00:53:41.077Z,78.31
2018-07-21T00:56:15.706Z,77.74
2018-07-21T00:58:50.120Z,78.06
2018-07-21T01:01:24.688Z,79.15
2018-07-21T01:03:59.116Z,76.22
2018-07-21T01:06:33.702Z,76.40
2018-07-21T01:09:09.758Z,78.30
2018-07-21T01:11:44.222Z,76.24
2018-07-21T01:14:18.774Z,76.03
2018-07-21T01:16:53.386Z,76.84
2018-07-21T01:19:27.850Z,76.69
2018-07-21T01:22:02.429Z,77.21
2018-07-21T01:24:36.932Z,74.20
2018-07-21T01:27:11.433Z,73.24
2018-07-21T01:29:46.088Z,74.99
2018-07-21T01:32:20.824Z,73.72
2018-07-21T01:34:55.473Z,72.64
2018-07-21T01:37:29.972Z,74.48
2018-07-21T01:40:04.689Z,72.36
2018-07-21T01:42:39.436Z,70.50
2018-07-21T01:45:14.047Z,70.42
2018-07-21T01:47:48.717Z,73.87
2018-07-21T01:50:23.244Z,72.14
2018-07-21T01:52:57.944Z,73.29
2018-07-21T01:55:32.568Z,73.68
2018-07-21T01:58:07.299Z,72.30
2018-07-21T02:00:41.822Z,72.60
2018-07-21T02:03:16.321Z,75.56
2018-07-21T02:05:50.810Z,74.45
2018-07-21T02:08:25.504Z,74.96
2018-07-21T02:11:00.146Z,73.10
2018-07-21T02:13:34.686Z,74.87
2018-07-21T02:16:09.323Z,73.68
2018-07-21T02:18:43.892Z,74.72
2018-07-21T02:21:18.333Z,73.46
2018-07-21T02:23:52.888Z,74.31
2018-07-21T02:26:27.878Z,73.74
2018-07-21T02:35:00.701Z,77.05
2018-07-21T02:37:35.126Z,77.60
2018-07-21T02:40:09.687Z,76.08
2018-07-21T02:42:44.555Z,75.40
2018-07-21T02:45:19.168Z,74.72
2018-07-21T02:47:57.525Z,76.13
2018-07-21T02:50:31.964Z,77.30
2018-07-21T02:53:06.494Z,78.21
2018-07-21T02:55:41.420Z,75.74
2018-07-21T02:58:16.070Z,76.14
2018-07-21T03:00:50.743Z,75.18
2018-07-21T03:03:25.510Z,75.27
2018-07-21T03:06:00.143Z,74.18
2018-07-21T03:08:34.557Z,75.57
2018-07-21T03:11:09.324Z,74.25
2018-07-21T03:13:43.880Z,74.28
2018-07-21T03:16:18.819Z,72.65
2018-07-21T03:18:53.329Z,74.59
2018-07-21T03:21:27.940Z,73.96
2018-07-21T03:24:02.725Z,74.18
2018-07-21T03:26:37.552Z,73.85
2018-07-21T03:29:12.320Z,73.50
2018-07-21T03:31:46.857Z,74.20
2018-07-21T03:34:21.398Z,73.97
2018-07-21T03:36:55.856Z,73.08
2018-07-21T03:39:30.607Z,73.57
2018-07-21T03:42:05.585Z,73.05
2018-07-21T03:44:40.237Z,72.55
2018-07-21T03:47:14.924Z,72.04
2018-07-21T03:49:49.420Z,69.70
2018-07-21T03:52:24.047Z,70.29
2018-07-21T03:54:58.652Z,70.85
2018-07-21T03:57:33.048Z,71.66
2018-07-21T04:00:07.564Z,72.45
2018-07-21T04:02:41.852Z,72.95
2018-07-21T04:05:16.440Z,77.19
2018-07-21T04:07:51.292Z,75.58
2018-07-21T04:10:26.036Z,75.20
2018-07-21T04:13:00.640Z,75.79
2018-07-21T04:15:35.189Z,78.63
2018-07-21T04:18:09.632Z,77.55
2018-07-21T04:20:44.259Z,79.12
2018-07-21T04:23:18.763Z,80.74
2018-07-21T04:25:53.276Z,81.68
2018-07-21T04:28:27.687Z,82.14
2018-07-21T04:31:02.375Z,83.10
2018-07-21T04:33:36.984Z,84.23
2018-07-21T04:36:11.424Z,85.16
2018-07-21T04:38:46.301Z,84.80
2018-07-21T04:41:20.831Z,84.91
2018-07-21T04:43:55.900Z,84.89
2018-07-21T04:46:30.715Z,85.82
2018-07-21T04:52:20.716Z,85.25
2018-07-21T04:54:55.457Z,85.39
2018-07-21T04:57:52.880Z,84.10
2018-07-21T05:00:33.056Z,83.43
2018-07-21T05:03:07.743Z,84.40
2018-07-21T05:05:42.304Z,84.03
2018-07-21T05:08:31.480Z,84.85
2018-07-21T05:11:13.039Z,83.64
2018-07-21T05:13:47.974Z,84.39
2018-07-21T05:16:25.832Z,84.81
2018-07-21T05:19:00.464Z,84.84
2018-07-21T05:21:34.896Z,85.47
2018-07-21T05:24:09.324Z,85.45
2018-07-21T05:26:43.740Z,86.19
2018-07-21T05:29:18.276Z,86.39
2018-07-21T05:31:52.984Z,86.54
2018-07-21T05:34:27.504Z,86.17
2018-07-21T05:37:02.085Z,86.73
2018-07-21T05:39:36.686Z,87.29
2018-07-21T05:42:11.341Z,86.95
2018-07-21T05:44:46.027Z,87.10
2018-07-21T05:47:20.634Z,86.26
2018-07-21T05:50:00.988Z,84.00
2018-07-21T05:52:57.991Z,82.48
2018-07-21T05:55:32.497Z,80.43
2018-07-21T05:58:07.210Z,78.79
2018-07-21T06:00:41.885Z,76.82
2018-07-21T06:03:16.544Z,75.06
2018-07-21T06:05:51.000Z,73.96
2018-07-21T06:08:25.551Z,74.97
2018-07-21T06:11:00.172Z,75.12
2018-07-21T06:13:34.632Z,74.99
2018-07-21T06:16:09.347Z,77.10
2018-07-21T06:18:43.899Z,75.70
2018-07-21T06:21:18.397Z,74.57
2018-07-21T06:23:53.215Z,73.30
2018-07-21T06:26:27.857Z,77.43
2018-07-21T06:29:02.768Z,74.79
2018-07-21T06:31:37.434Z,72.79
2018-07-21T06:34:12.076Z,69.46
2018-07-21T06:36:46.579Z,71.04
2018-07-21T06:39:21.140Z,69.78
2018-07-21T06:41:55.754Z,70.11
2018-07-21T06:44:30.673Z,70.55
2018-07-21T06:47:05.376Z,70.70
2018-07-21T06:49:39.921Z,68.02
2018-07-21T06:52:14.496Z,67.66
2018-07-21T06:54:49.040Z,65.72
2018-07-21T06:57:23.578Z,64.54
2018-07-21T06:59:58.033Z,66.14
2018-07-21T07:02:32.650Z,62.92
2018-07-21T07:05:07.828Z,61.97
2018-07-21T07:07:42.434Z,59.02
2018-07-21T07:10:17.125Z,57.73
2018-07-21T07:12:51.604Z,56.70
2018-07-21T07:15:26.158Z,55.55
2018-07-21T07:18:00.708Z,53.51
2018-07-21T07:20:35.100Z,53.37
2018-07-21T07:23:09.735Z,50.11
2018-07-21T07:25:44.412Z,48.61
2018-07-21T07:28:18.980Z,49.08
2018-07-21T07:30:53.653Z,51.21
2018-07-21T07:33:28.163Z,50.40
2018-07-21T07:36:02.473Z,46.81
2018-07-21T07:38:37.146Z,47.30
2018-07-21T07:41:11.535Z,49.36
2018-07-21T07:43:46.095Z,52.52
2018-07-21T07:46:20.426Z,51.83
2018-07-21T07:48:54.767Z,51.32
2018-07-21T07:51:29.111Z,51.48
2018-07-21T07:54:03.516Z,48.98
2018-07-21T07:56:41.350Z,47.98
2018-07-21T07:59:15.710Z,45.27
2018-07-21T08:01:50.046Z,43.62
2018-07-21T08:04:24.704Z,45.39
2018-07-21T08:06:59.189Z,47.29
2018-07-21T08:09:33.641Z,48.69
2018-07-21T08:12:08.147Z,48.41
2018-07-21T08:14:42.613Z,50.07
2018-07-21T08:17:17.092Z,49.55
2018-07-21T08:19:51.577Z,45.75
2018-07-21T08:22:26.124Z,41.92
2018-07-21T08:25:00.688Z,38.21
2018-07-21T08:27:35.114Z,37.50
2018-07-21T08:30:10.745Z,39.32
2018-07-21T08:32:45.373Z,38.83
2018-07-21T08:35:19.811Z,35.21
2018-07-21T08:37:54.368Z,35.01
2018-07-21T08:40:28.830Z,31.13
2018-07-21T08:43:03.388Z,31.24
2018-07-21T08:45:37.939Z,29.87
2018-07-21T08:48:12.358Z,31.10
2018-07-21T08:50:46.698Z,32.19
2018-07-21T08:53:21.118Z,31.32
2018-07-21T08:55:55.494Z,27.89
2018-07-21T08:58:29.866Z,27.46
2018-07-21T09:01:04.222Z,30.62
2018-07-21T09:03:43.813Z,29.72
2018-07-21T09:06:18.488Z,29.66
2018-07-21T09:08:53.012Z,26.53
2018-07-21T09:11:27.400Z,27.45
2018-07-21T09:14:01.619Z,27.94
2018-07-21T09:16:36.043Z,28.78
2018-07-21T09:22:17.455Z,25.72
2018-07-21T09:24:52.003Z,27.25
2018-07-21T09:27:26.371Z,26.28
2018-07-21T09:30:00.737Z,26.04
2018-07-21T09:32:35.112Z,24.18
2018-07-21T09:35:09.503Z,25.08
2018-07-21T09:37:43.999Z,26.15
2018-07-21T09:40:18.547Z,25.69
2018-07-21T09:42:52.931Z,26.05
2018-07-21T09:45:27.279Z,26.29
2018-07-21T09:48:01.720Z,24.95
2018-07-21T09:50:36.126Z,22.58
2018-07-21T09:53:10.642Z,22.14
2018-07-21T09:55:45.191Z,25.94
2018-07-21T09:58:19.764Z,23.76
2018-07-21T10:00:59.744Z,23.41
2018-07-21T10:03:34.913Z,25.48
2018-07-21T10:06:09.375Z,24.43
2018-07-21T10:08:43.728Z,21.80
2018-07-21T10:11:18.256Z,22.54
2018-07-21T10:13:52.891Z,24.81
2018-07-21T10:16:27.456Z,24.49
2018-07-21T10:19:01.976Z,23.40
2018-07-21T10:21:36.575Z,22.52
2018-07-21T10:24:16.396Z,22.64
2018-07-21T10:26:56.303Z,19.03
2018-07-21T10:29:39.127Z,22.51
2018-07-21T10:32:13.928Z,21.10
2018-07-21T10:34:58.583Z,19.09
2018-07-21T10:37:34.303Z,21.66
2018-07-21T10:40:08.964Z,23.20
2018-07-21T10:42:43.621Z,21.80
2018-07-21T10:45:36.105Z,24.48
2018-07-21T10:48:10.672Z,25.79
2018-07-21T10:53:56.129Z,22.94
2018-07-21T10:56:38.319Z,20.13
2018-07-21T10:59:12.603Z,21.40
2018-07-21T11:01:47.348Z,18.36
2018-07-21T11:04:33.913Z,20.86
2018-07-21T11:10:07.548Z,23.45
2018-07-21T11:12:41.990Z,25.19
2018-07-21T11:15:27.522Z,26.52
2018-07-21T11:18:12.424Z,27.33
2018-07-21T11:20:46.990Z,25.48
2018-07-21T11:23:21.398Z,23.21
2018-07-21T11:26:06.052Z,24.56
2018-07-21T11:28:40.416Z,22.90
2018-07-21T11:31:15.010Z,23.55
2018-07-21T11:33:49.395Z,26.09
2018-07-21T11:36:23.848Z,24.86
2018-07-21T11:38:58.167Z,26.56
2018-07-21T11:41:32.532Z,25.26
2018-07-21T11:44:06.831Z,26.25
2018-07-21T11:46:41.193Z,24.20
2018-07-21T11:49:15.511Z,25.29
2018-07-21T11:51:49.910Z,25.61
2018-07-21T11:54:31.392Z,25.47
2018-07-21T11:57:06.065Z,27.17
2018-07-21T11:59:40.467Z,27.52
2018-07-21T12:02:14.791Z,27.96
2018-07-21T12:04:49.522Z,29.83
2018-07-21T12:07:23.975Z,29.02
2018-07-21T12:09:58.256Z,28.23
2018-07-21T12:12:34.844Z,29.07
2018-07-21T12:15:10.014Z,30.62
2018-07-21T12:17:44.410Z,31.92
2018-07-21T12:23:23.202Z,33.70
2018-07-21T12:29:15.941Z,31.04
2018-07-21T12:43:56.724Z,32.32
2018-07-21T12:46:31.163Z,32.58
2018-07-21T12:49:05.465Z,32.09
2018-07-21T12:51:39.956Z,32.33
2018-07-21T12:54:14.367Z,31.62
2018-07-21T12:56:48.666Z,31.75
2018-07-21T12:59:23.100Z,31.82
2018-07-21T13:01:57.468Z,33.08
2018-07-21T13:04:36.848Z,33.60
2018-07-21T13:07:12.295Z,33.38
2018-07-21T13:09:46.711Z,35.71
2018-07-21T13:12:21.221Z,34.75
2018-07-21T13:14:55.611Z,34.42
2018-07-21T13:17:30.422Z,34.60
2018-07-21T13:20:05.353Z,35.38
2018-07-21T13:22:40.767Z,35.51
2018-07-21T13:25:15.429Z,34.03
2018-07-21T13:27:50.032Z,33.46
2018-07-21T13:30:24.572Z,33.78
2018-07-21T13:32:58.989Z,35.65
2018-07-21T13:35:34.096Z,34.24
2018-07-21T13:38:08.584Z,34.94
2018-07-21T13:40:43.565Z,32.35
2018-07-21T13:43:18.063Z,32.67
2018-07-21T13:46:09.291Z,32.55
2018-07-21T13:48:43.869Z,32.53
2018-07-21T13:51:18.977Z,33.39
2018-07-21T13:53:53.593Z,32.74
2018-07-21T13:56:29.032Z,32.64
2018-07-21T13:59:03.588Z,32.33
2018-07-21T14:01:38.136Z,32.36
2018-07-21T14:04:12.592Z,31.54
2018-07-21T14:06:47.215Z,32.06
2018-07-21T14:09:32.100Z,33.45
2018-07-21T14:12:06.960Z,32.40
2018-07-21T14:14:54.136Z,32.59
2018-07-21T14:26:25.277Z,32.12
2018-07-21T14:28:59.785Z,29.68
2018-07-21T14:31:34.759Z,30.62
2018-07-21T14:34:09.328Z,34.03
2018-07-21T14:36:43.759Z,34.20
2018-07-21T14:39:18.299Z,36.07
2018-07-21T14:41:52.997Z,36.52
2018-07-21T14:44:27.188Z,38.06
2018-07-21T14:47:01.708Z,39.99
2018-07-21T14:49:36.187Z,41.55
2018-07-21T14:52:10.711Z,42.50
2018-07-21T14:54:45.198Z,44.10
2018-07-21T14:57:19.655Z,45.71
2018-07-21T14:59:55.291Z,46.41
2018-07-21T15:02:29.841Z,47.75
2018-07-21T15:05:04.366Z,48.92
2018-07-21T15:07:38.936Z,48.61
2018-07-21T15:10:13.645Z,47.78
2018-07-21T15:12:48.289Z,49.46
2018-07-21T15:15:22.849Z,50.09
2018-07-21T15:17:57.492Z,50.59
2018-07-21T15:20:32.299Z,50.93
2018-07-21T15:23:06.969Z,51.03
2018-07-21T15:25:41.722Z,51.37
2018-07-21T15:28:16.370Z,51.79
2018-07-21T15:30:50.885Z,50.78
2018-07-21T15:33:25.387Z,50.35
2018-07-21T15:36:00.273Z,50.27
2018-07-21T15:38:34.864Z,50.63
2018-07-21T15:41:09.364Z,50.39
2018-07-21T15:43:43.900Z,51.31
2018-07-21T15:52:16.384Z,51.16
2018-07-21T15:54:50.879Z,51.07
2018-07-21T15:57:25.329Z,50.56
2018-07-21T15:59:59.809Z,51.18
2018-07-21T16:02:34.309Z,50.95
2018-07-21T16:05:08.717Z,50.71
2018-07-21T16:07:43.060Z,50.55
2018-07-21T16:10:25.899Z,50.34
2018-07-21T16:13:00.339Z,49.99
2018-07-21T16:15:34.719Z,50.25
2018-07-21T16:18:09.125Z,49.98
2018-07-21T16:20:43.438Z,49.94
2018-07-21T16:23:17.860Z,48.30
2018-07-21T16:25:52.256Z,48.66
2018-07-21T16:28:26.531Z,47.10
2018-07-21T16:31:00.935Z,46.61
2018-07-21T16:33:35.408Z,45.58
2018-07-21T16:36:10.005Z,45.39
2018-07-21T16:38:44.796Z,45.75
2018-07-21T16:41:19.152Z,44.75
2018-07-21T16:43:53.666Z,46.06
2018-07-21T16:46:28.218Z,44.91
2018-07-21T16:49:02.693Z,44.16
2018-07-21T16:51:37.148Z,43.15
2018-07-21T16:54:11.685Z,43.46
2018-07-21T16:56:50.690Z,43.63
2018-07-21T16:59:25.540Z,43.29
2018-07-21T17:02:00.112Z,43.11
2018-07-21T17:04:34.542Z,43.67
2018-07-21T17:07:09.304Z,43.85
2018-07-21T17:09:43.884Z,44.44
2018-07-21T17:12:18.328Z,44.87
2018-07-21T17:14:52.793Z,44.73
2018-07-21T17:17:27.396Z,45.76
2018-07-21T17:20:01.908Z,45.75
2018-07-21T17:22:36.580Z,46.57
2018-07-21T17:25:11.241Z,46.87
2018-07-21T17:27:45.729Z,46.81
2018-07-21T17:30:20.264Z,47.69
2018-07-21T17:32:55.105Z,47.77
2018-07-21T17:35:29.577Z,48.11
2018-07-21T17:38:04.484Z,48.57
2018-07-21T17:40:39.040Z,48.86
2018-07-21T17:43:13.654Z,49.66
2018-07-21T17:45:48.115Z,49.96
2018-07-21T17:48:22.540Z,49.71
2018-07-21T17:50:57.114Z,48.28
2018-07-21T17:53:31.583Z,48.55
2018-07-21T17:56:06.185Z,48.25
2018-07-21T17:58:40.787Z,48.12
2018-07-21T18:01:15.588Z,48.16
2018-07-21T18:03:50.233Z,48.00
2018-07-21T18:06:24.840Z,49.18
2018-07-21T18:08:59.337Z,49.47
2018-07-21T18:11:40.801Z,50.05
2018-07-21T18:14:15.256Z,49.98
2018-07-21T18:16:49.801Z,50.86
2018-07-21T18:19:24.455Z,50.40
2018-07-21T18:21:58.877Z,51.43
2018-07-21T18:24:33.364Z,51.96
2018-07-21T18:27:08.001Z,52.15
2018-07-21T18:29:42.608Z,53.07
2018-07-21T18:32:17.385Z,54.43
2018-07-21T18:34:51.911Z,54.73
2018-07-21T18:37:26.265Z,54.19
2018-07-21T18:40:00.778Z,53.90
2018-07-21T18:42:35.296Z,53.20
2018-07-21T18:45:09.855Z,53.71
2018-07-21T18:47:44.508Z,53.96
2018-07-21T18:50:19.517Z,52.39
2018-07-21T18:52:53.982Z,54.37
2018-07-21T18:55:28.596Z,52.89
2018-07-21T18:58:03.188Z,53.61
2018-07-21T19:00:37.742Z,54.98
2018-07-21T19:03:12.208Z,55.27
2018-07-21T19:05:46.677Z,56.44
2018-07-21T19:08:25.332Z,56.64
2018-07-21T19:10:59.836Z,57.32
2018-07-21T19:13:34.435Z,57.96
2018-07-21T19:16:14.224Z,58.25
2018-07-21T19:18:48.762Z,58.19
2018-07-21T19:21:23.399Z,58.02
2018-07-21T19:23:57.862Z,59.10
2018-07-21T19:26:37.686Z,59.60
2018-07-21T19:29:11.985Z,60.00
2018-07-21T19:31:51.917Z,57.35
2018-07-21T19:34:31.912Z,57.10
2018-07-21T19:37:28.480Z,58.27
2018-07-21T19:40:03.352Z,59.82
2018-07-21T19:42:37.852Z,60.13
2018-07-21T19:45:12.848Z,59.69
2018-07-21T19:47:47.418Z,59.58
2018-07-21T19:50:21.960Z,60.85
2018-07-21T19:52:56.685Z,60.20
2018-07-21T19:55:31.101Z,59.70
2018-07-21T19:58:05.667Z,60.76
2018-07-21T20:00:40.271Z,58.02
2018-07-21T20:03:14.892Z,59.54
2018-07-21T20:05:49.348Z,56.72
2018-07-21T20:11:23.579Z,56.98
2018-07-21T20:14:01.931Z,56.56
2018-07-21T20:16:36.738Z,56.27
2018-07-21T20:19:11.240Z,57.15
2018-07-21T20:21:45.878Z,57.48
2018-07-21T20:24:20.373Z,57.92
2018-07-21T20:26:54.867Z,57.78
2018-07-21T20:29:29.528Z,57.56
2018-07-21T20:32:04.074Z,57.76
2018-07-21T20:34:38.606Z,58.52
2018-07-21T20:37:16.788Z,60.33
2018-07-21T20:39:51.828Z,59.16
2018-07-21T20:42:26.263Z,58.63
2018-07-21T20:45:00.817Z,59.37
2018-07-21T20:47:35.271Z,59.33
2018-07-21T20:50:09.831Z,59.68
2018-07-21T20:52:44.484Z,59.61
2018-07-21T20:55:19.260Z,60.24
2018-07-21T20:57:53.804Z,60.72
2018-07-21T21:00:28.511Z,61.66
2018-07-21T21:03:02.954Z,61.44
2018-07-21T21:05:39.092Z,61.84
2018-07-21T21:08:18.508Z,61.65
2018-07-21T21:11:04.392Z,62.04
2018-07-21T21:13:38.892Z,63.08
2018-07-21T21:16:13.388Z,63.89
2018-07-21T21:18:47.792Z,63.04
2018-07-21T21:21:22.296Z,64.08
2018-07-21T21:23:56.828Z,64.47
2018-07-21T21:29:40.966Z,65.68
2018-07-21T21:32:15.458Z,65.46
2018-07-21T21:34:50.113Z,66.85
2018-07-21T21:37:24.684Z,67.19
2018-07-21T21:39:59.193Z,67.57
2018-07-21T21:42:33.865Z,68.38
2018-07-21T21:45:08.393Z,67.97
2018-07-21T21:47:42.945Z,67.83
2018-07-21T21:50:17.544Z,67.74
2018-07-21T21:52:52.217Z,68.48
2018-07-21T21:55:26.916Z,68.99
2018-07-21T21:58:19.912Z,69.38
2018-07-21T22:04:03.163Z,69.75
2018-07-21T22:06:37.577Z,69.08
2018-07-21T22:09:12.351Z,69.13
2018-07-21T22:11:46.857Z,69.58
2018-07-21T22:14:21.240Z,68.42
2018-07-21T22:16:55.600Z,68.47
2018-07-21T22:19:30.090Z,68.42
2018-07-21T22:22:04.704Z,68.64
2018-07-21T22:24:39.396Z,69.00
2018-07-21T22:27:14.020Z,68.97
2018-07-21T22:29:48.587Z,68.94
2018-07-21T22:32:23.177Z,69.38
2018-07-21T22:34:57.773Z,69.64
2018-07-21T22:37:32.407Z,69.18
2018-07-21T22:40:06.881Z,69.64
2018-07-21T22:42:41.403Z,70.22
2018-07-21T22:45:15.998Z,70.24
2018-07-21T22:47:50.550Z,71.09
2018-07-21T22:50:25.474Z,71.54
2018-07-21T22:53:00.145Z,71.21
2018-07-21T22:55:34.652Z,71.65
2018-07-21T22:58:09.120Z,71.59
2018-07-21T23:00:43.893Z,72.29
2018-07-21T23:03:18.607Z,72.72
2018-07-21T23:05:57.156Z,72.76
2018-07-21T23:08:33.664Z,73.56
2018-07-21T23:11:08.144Z,73.72
2018-07-21T23:13:42.634Z,74.49
2018-07-21T23:16:17.198Z,75.23
2018-07-21T23:18:51.713Z,74.79
2018-07-21T23:21:27.197Z,75.41
2018-07-21T23:24:01.677Z,75.63
2018-07-21T23:26:36.267Z,75.86
2018-07-21T23:29:10.748Z,76.04
2018-07-21T23:31:45.336Z,75.69
2018-07-21T23:34:19.881Z,75.35
2018-07-21T23:36:54.784Z,75.17
2018-07-21T23:39:29.468Z,75.31
2018-07-21T23:42:04.126Z,74.85
2018-07-21T23:44:38.664Z,75.07
2018-07-21T23:47:13.372Z,75.54
2018-07-21T23:49:47.981Z,75.36
2018-07-21T23:52:22.544Z,75.58
2018-07-21T23:54:57.163Z,75.60
2018-07-21T23:57:31.953Z,75.29
